sensor_id;sensor_type;location;lat;lon;timestamp;P1;durP1;ratioP1;P2;durP2;ratioP2
39750;SDS011;37579;51.074;17.004;2023-02-26T00:02:20;2.30;;;0.73;;
39750;SDS011;37579;51.074;17.004;2023-02-26T00:04:45;2.17;;;0.90;;
39750;SDS011;37579;51.074;17.004;2023-02-26T00:07:11;3.40;;;0.98;;
39750;SDS011;37579;51.074;17.004;2023-02-26T00:09:37;3.42;;;1.08;;
39750;SDS011;37579;51.074;17.004;2023-02-26T00:12:03;2.97;;;0.75;;
39750;SDS011;37579;51.074;17.004;2023-02-26T00:14:29;1.52;;;1.10;;
39750;SDS011;37579;51.074;17.004;2023-02-26T00:19:59;1.63;;;0.68;;
39750;SDS011;37579;51.074;17.004;2023-02-26T00:22:25;2.03;;;1.00;;
39750;SDS011;37579;51.074;17.004;2023-02-26T00:24:51;2.42;;;0.70;;
39750;SDS011;37579;51.074;17.004;2023-02-26T00:27:17;2.45;;;0.90;;
39750;SDS011;37579;51.074;17.004;2023-02-26T00:29:43;1.27;;;0.50;;
39750;SDS011;37579;51.074;17.004;2023-02-26T00:32:10;2.30;;;1.20;;
39750;SDS011;37579;51.074;17.004;2023-02-26T00:34:36;1.73;;;0.70;;
39750;SDS011;37579;51.074;17.004;2023-02-26T00:40:02;1.95;;;0.85;;
39750;SDS011;37579;51.074;17.004;2023-02-26T00:42:33;2.40;;;0.60;;
39750;SDS011;37579;51.074;17.004;2023-02-26T00:44:59;1.83;;;0.73;;
39750;SDS011;37579;51.074;17.004;2023-02-26T00:55:44;3.03;;;0.75;;
39750;SDS011;37579;51.074;17.004;2023-02-26T00:58:10;1.67;;;0.65;;
39750;SDS011;37579;51.074;17.004;2023-02-26T01:00:36;1.58;;;0.80;;
39750;SDS011;37579;51.074;17.004;2023-02-26T01:03:01;3.17;;;1.20;;
39750;SDS011;37579;51.074;17.004;2023-02-26T01:05:28;1.77;;;0.57;;
39750;SDS011;37579;51.074;17.004;2023-02-26T01:10:30;1.15;;;0.45;;
39750;SDS011;37579;51.074;17.004;2023-02-26T01:12:57;2.10;;;0.50;;
39750;SDS011;37579;51.074;17.004;2023-02-26T01:15:23;2.25;;;0.70;;
39750;SDS011;37579;51.074;17.004;2023-02-26T01:17:50;2.30;;;0.77;;
39750;SDS011;37579;51.074;17.004;2023-02-26T01:20:23;2.10;;;0.60;;
39750;SDS011;37579;51.074;17.004;2023-02-26T01:22:54;1.50;;;0.40;;
39750;SDS011;37579;51.074;17.004;2023-02-26T01:27:59;1.00;;;0.43;;
39750;SDS011;37579;51.074;17.004;2023-02-26T01:30:25;1.58;;;0.63;;
39750;SDS011;37579;51.074;17.004;2023-02-26T01:35:52;1.23;;;0.55;;
39750;SDS011;37579;51.074;17.004;2023-02-26T01:38:27;0.95;;;0.45;;
39750;SDS011;37579;51.074;17.004;2023-02-26T02:05:11;1.20;;;0.40;;
39750;SDS011;37579;51.074;17.004;2023-02-26T02:07:41;0.98;;;0.43;;
39750;SDS011;37579;51.074;17.004;2023-02-26T02:10:08;2.20;;;0.50;;
39750;SDS011;37579;51.074;17.004;2023-02-26T02:12:39;0.77;;;0.40;;
39750;SDS011;37579;51.074;17.004;2023-02-26T02:15:22;0.55;;;0.30;;
39750;SDS011;37579;51.074;17.004;2023-02-26T02:20:56;1.85;;;0.60;;
39750;SDS011;37579;51.074;17.004;2023-02-26T02:32:07;0.35;;;0.20;;
39750;SDS011;37579;51.074;17.004;2023-02-26T02:34:40;0.47;;;0.30;;
39750;SDS011;37579;51.074;17.004;2023-02-26T02:40:30;0.77;;;0.30;;
39750;SDS011;37579;51.074;17.004;2023-02-26T02:47:58;0.90;;;0.50;;
39750;SDS011;37579;51.074;17.004;2023-02-26T02:50:31;0.80;;;0.52;;
39750;SDS011;37579;51.074;17.004;2023-02-26T02:53:02;0.45;;;0.30;;
39750;SDS011;37579;51.074;17.004;2023-02-26T02:55:55;1.23;;;0.32;;
39750;SDS011;37579;51.074;17.004;2023-02-26T02:58:30;0.73;;;0.30;;
39750;SDS011;37579;51.074;17.004;2023-02-26T03:01:00;1.75;;;0.40;;
39750;SDS011;37579;51.074;17.004;2023-02-26T03:03:35;0.60;;;0.30;;
39750;SDS011;37579;51.074;17.004;2023-02-26T03:06:19;1.20;;;0.50;;
39750;SDS011;37579;51.074;17.004;2023-02-26T03:08:48;0.10;;;0.10;;
39750;SDS011;37579;51.074;17.004;2023-02-26T03:11:15;0.88;;;0.20;;
39750;SDS011;37579;51.074;17.004;2023-02-26T03:13:42;0.75;;;0.30;;
39750;SDS011;37579;51.074;17.004;2023-02-26T03:16:31;0.47;;;0.30;;
39750;SDS011;37579;51.074;17.004;2023-02-26T03:25:01;0.63;;;0.30;;
39750;SDS011;37579;51.074;17.004;2023-02-26T03:27:36;1.13;;;0.30;;
39750;SDS011;37579;51.074;17.004;2023-02-26T03:30:15;0.88;;;0.35;;
39750;SDS011;37579;51.074;17.004;2023-02-26T03:35:35;1.23;;;0.47;;
39750;SDS011;37579;51.074;17.004;2023-02-26T03:38:38;0.88;;;0.20;;
39750;SDS011;37579;51.074;17.004;2023-02-26T03:41:12;0.93;;;0.30;;
39750;SDS011;37579;51.074;17.004;2023-02-26T03:43:47;0.98;;;0.40;;
39750;SDS011;37579;51.074;17.004;2023-02-26T03:46:22;0.35;;;0.20;;
39750;SDS011;37579;51.074;17.004;2023-02-26T03:48:57;0.80;;;0.30;;
39750;SDS011;37579;51.074;17.004;2023-02-26T03:51:26;0.60;;;0.25;;
39750;SDS011;37579;51.074;17.004;2023-02-26T03:54:18;0.47;;;0.20;;
39750;SDS011;37579;51.074;17.004;2023-02-26T03:57:05;0.82;;;0.45;;
39750;SDS011;37579;51.074;17.004;2023-02-26T03:59:53;0.55;;;0.25;;
39750;SDS011;37579;51.074;17.004;2023-02-26T04:05:26;0.52;;;0.30;;
39750;SDS011;37579;51.074;17.004;2023-02-26T04:07:56;0.98;;;0.30;;
39750;SDS011;37579;51.074;17.004;2023-02-26T04:10:33;0.70;;;0.30;;
39750;SDS011;37579;51.074;17.004;2023-02-26T04:13:04;0.35;;;0.30;;
39750;SDS011;37579;51.074;17.004;2023-02-26T04:15:30;0.75;;;0.30;;
39750;SDS011;37579;51.074;17.004;2023-02-26T04:17:56;0.32;;;0.20;;
39750;SDS011;37579;51.074;17.004;2023-02-26T04:20:21;0.75;;;0.30;;
39750;SDS011;37579;51.074;17.004;2023-02-26T04:22:47;0.55;;;0.20;;
39750;SDS011;37579;51.074;17.004;2023-02-26T04:25:13;0.40;;;0.20;;
39750;SDS011;37579;51.074;17.004;2023-02-26T04:27:40;0.25;;;0.20;;
39750;SDS011;37579;51.074;17.004;2023-02-26T04:30:06;0.38;;;0.17;;
39750;SDS011;37579;51.074;17.004;2023-02-26T04:32:33;0.52;;;0.10;;
39750;SDS011;37579;51.074;17.004;2023-02-26T04:34:59;0.30;;;0.20;;
39750;SDS011;37579;51.074;17.004;2023-02-26T04:37:25;0.22;;;0.22;;
39750;SDS011;37579;51.074;17.004;2023-02-26T04:39:51;0.85;;;0.20;;
39750;SDS011;37579;51.074;17.004;2023-02-26T04:42:17;0.22;;;0.10;;
39750;SDS011;37579;51.074;17.004;2023-02-26T04:44:43;0.90;;;0.30;;
39750;SDS011;37579;51.074;17.004;2023-02-26T04:47:11;0.25;;;0.20;;
39750;SDS011;37579;51.074;17.004;2023-02-26T04:49:37;0.45;;;0.20;;
39750;SDS011;37579;51.074;17.004;2023-02-26T04:52:02;0.10;;;0.10;;
39750;SDS011;37579;51.074;17.004;2023-02-26T04:54:29;0.20;;;0.10;;
39750;SDS011;37579;51.074;17.004;2023-02-26T04:56:55;0.25;;;0.15;;
39750;SDS011;37579;51.074;17.004;2023-02-26T04:59:21;0.30;;;0.20;;
39750;SDS011;37579;51.074;17.004;2023-02-26T05:01:47;0.52;;;0.17;;
39750;SDS011;37579;51.074;17.004;2023-02-26T05:04:12;0.60;;;0.15;;
39750;SDS011;37579;51.074;17.004;2023-02-26T05:06:40;0.20;;;0.10;;
39750;SDS011;37579;51.074;17.004;2023-02-26T05:09:06;0.30;;;0.15;;
39750;SDS011;37579;51.074;17.004;2023-02-26T05:11:32;0.22;;;0.10;;
39750;SDS011;37579;51.074;17.004;2023-02-26T05:13:58;0.30;;;0.20;;
39750;SDS011;37579;51.074;17.004;2023-02-26T05:16:24;0.52;;;0.20;;
39750;SDS011;37579;51.074;17.004;2023-02-26T05:18:49;0.32;;;0.20;;
39750;SDS011;37579;51.074;17.004;2023-02-26T05:21:16;0.30;;;0.20;;
39750;SDS011;37579;51.074;17.004;2023-02-26T05:23:42;0.30;;;0.13;;
39750;SDS011;37579;51.074;17.004;2023-02-26T05:26:08;0.30;;;0.10;;
39750;SDS011;37579;51.074;17.004;2023-02-26T05:28:34;0.40;;;0.20;;
39750;SDS011;37579;51.074;17.004;2023-02-26T05:31:01;0.15;;;0.10;;
39750;SDS011;37579;51.074;17.004;2023-02-26T05:33:27;0.47;;;0.20;;
39750;SDS011;37579;51.074;17.004;2023-02-26T05:35:53;0.30;;;0.20;;
39750;SDS011;37579;51.074;17.004;2023-02-26T05:38:19;0.30;;;0.20;;
39750;SDS011;37579;51.074;17.004;2023-02-26T05:40:45;0.20;;;0.10;;
39750;SDS011;37579;51.074;17.004;2023-02-26T05:43:10;0.77;;;0.20;;
39750;SDS011;37579;51.074;17.004;2023-02-26T05:45:36;0.80;;;0.28;;
39750;SDS011;37579;51.074;17.004;2023-02-26T05:48:02;0.38;;;0.10;;
39750;SDS011;37579;51.074;17.004;2023-02-26T05:50:28;0.40;;;0.10;;
39750;SDS011;37579;51.074;17.004;2023-02-26T05:52:54;0.10;;;0.10;;
39750;SDS011;37579;51.074;17.004;2023-02-26T05:55:20;0.70;;;0.38;;
39750;SDS011;37579;51.074;17.004;2023-02-26T05:57:46;0.68;;;0.30;;
39750;SDS011;37579;51.074;17.004;2023-02-26T06:00:12;0.90;;;0.28;;
39750;SDS011;37579;51.074;17.004;2023-02-26T06:02:39;0.45;;;0.20;;
39750;SDS011;37579;51.074;17.004;2023-02-26T06:05:05;0.40;;;0.20;;
39750;SDS011;37579;51.074;17.004;2023-02-26T06:07:32;0.30;;;0.20;;
39750;SDS011;37579;51.074;17.004;2023-02-26T06:09:58;0.40;;;0.13;;
39750;SDS011;37579;51.074;17.004;2023-02-26T06:12:24;0.40;;;0.20;;
39750;SDS011;37579;51.074;17.004;2023-02-26T06:14:50;0.13;;;0.13;;
39750;SDS011;37579;51.074;17.004;2023-02-26T06:17:16;0.47;;;0.10;;
39750;SDS011;37579;51.074;17.004;2023-02-26T06:19:41;0.43;;;0.10;;
39750;SDS011;37579;51.074;17.004;2023-02-26T06:22:08;0.50;;;0.10;;
39750;SDS011;37579;51.074;17.004;2023-02-26T06:24:34;0.10;;;0.10;;
39750;SDS011;37579;51.074;17.004;2023-02-26T06:27:00;0.73;;;0.10;;
39750;SDS011;37579;51.074;17.004;2023-02-26T06:29:26;0.20;;;0.10;;
39750;SDS011;37579;51.074;17.004;2023-02-26T06:31:52;0.17;;;0.10;;
39750;SDS011;37579;51.074;17.004;2023-02-26T06:34:17;0.20;;;0.10;;
39750;SDS011;37579;51.074;17.004;2023-02-26T06:36:43;0.10;;;0.10;;
39750;SDS011;37579;51.074;17.004;2023-02-26T06:39:09;0.65;;;0.10;;
39750;SDS011;37579;51.074;17.004;2023-02-26T06:41:36;0.47;;;0.10;;
39750;SDS011;37579;51.074;17.004;2023-02-26T06:44:02;0.45;;;0.10;;
39750;SDS011;37579;51.074;17.004;2023-02-26T06:46:28;0.10;;;0.10;;
39750;SDS011;37579;51.074;17.004;2023-02-26T06:48:54;0.22;;;0.10;;
39750;SDS011;37579;51.074;17.004;2023-02-26T06:51:20;1.02;;;0.40;;
39750;SDS011;37579;51.074;17.004;2023-02-26T06:53:45;0.25;;;0.10;;
39750;SDS011;37579;51.074;17.004;2023-02-26T06:56:11;0.20;;;0.10;;
39750;SDS011;37579;51.074;17.004;2023-02-26T06:58:37;0.32;;;0.15;;
39750;SDS011;37579;51.074;17.004;2023-02-26T07:01:03;0.20;;;0.10;;
39750;SDS011;37579;51.074;17.004;2023-02-26T07:03:29;0.22;;;0.10;;
39750;SDS011;37579;51.074;17.004;2023-02-26T07:05:55;0.17;;;0.10;;
39750;SDS011;37579;51.074;17.004;2023-02-26T07:08:21;0.20;;;0.20;;
39750;SDS011;37579;51.074;17.004;2023-02-26T07:10:48;1.00;;;0.10;;
39750;SDS011;37579;51.074;17.004;2023-02-26T07:13:15;1.35;;;0.20;;
39750;SDS011;37579;51.074;17.004;2023-02-26T07:15:41;0.40;;;0.10;;
39750;SDS011;37579;51.074;17.004;2023-02-26T07:18:07;0.20;;;0.10;;
39750;SDS011;37579;51.074;17.004;2023-02-26T07:20:33;0.10;;;0.10;;
39750;SDS011;37579;51.074;17.004;2023-02-26T07:22:58;0.40;;;0.13;;
39750;SDS011;37579;51.074;17.004;2023-02-26T07:25:25;0.60;;;0.20;;
39750;SDS011;37579;51.074;17.004;2023-02-26T07:27:51;0.20;;;0.10;;
39750;SDS011;37579;51.074;17.004;2023-02-26T07:30:17;1.05;;;0.17;;
39750;SDS011;37579;51.074;17.004;2023-02-26T07:32:43;2.20;;;0.20;;
39750;SDS011;37579;51.074;17.004;2023-02-26T07:35:09;0.22;;;0.10;;
39750;SDS011;37579;51.074;17.004;2023-02-26T07:37:34;0.20;;;0.10;;
39750;SDS011;37579;51.074;17.004;2023-02-26T07:40:01;0.10;;;0.10;;
39750;SDS011;37579;51.074;17.004;2023-02-26T07:42:27;0.20;;;0.10;;
39750;SDS011;37579;51.074;17.004;2023-02-26T07:44:53;1.52;;;0.10;;
39750;SDS011;37579;51.074;17.004;2023-02-26T07:47:19;0.25;;;0.10;;
39750;SDS011;37579;51.074;17.004;2023-02-26T07:49:44;0.52;;;0.10;;
39750;SDS011;37579;51.074;17.004;2023-02-26T07:52:10;0.38;;;0.10;;
39750;SDS011;37579;51.074;17.004;2023-02-26T07:54:36;0.10;;;0.10;;
39750;SDS011;37579;51.074;17.004;2023-02-26T07:57:02;0.20;;;0.10;;
39750;SDS011;37579;51.074;17.004;2023-02-26T07:59:28;0.00;;;0.00;;
39750;SDS011;37579;51.074;17.004;2023-02-26T08:01:54;0.20;;;0.10;;
39750;SDS011;37579;51.074;17.004;2023-02-26T08:04:21;0.22;;;0.10;;
39750;SDS011;37579;51.074;17.004;2023-02-26T08:06:47;1.20;;;0.10;;
39750;SDS011;37579;51.074;17.004;2023-02-26T08:09:13;0.43;;;0.30;;
39750;SDS011;37579;51.074;17.004;2023-02-26T08:11:39;0.13;;;0.10;;
39750;SDS011;37579;51.074;17.004;2023-02-26T08:14:07;0.10;;;0.10;;
39750;SDS011;37579;51.074;17.004;2023-02-26T08:16:33;0.30;;;0.10;;
39750;SDS011;37579;51.074;17.004;2023-02-26T08:18:59;1.30;;;0.20;;
39750;SDS011;37579;51.074;17.004;2023-02-26T08:21:25;0.40;;;0.10;;
39750;SDS011;37579;51.074;17.004;2023-02-26T08:23:51;0.60;;;0.13;;
39750;SDS011;37579;51.074;17.004;2023-02-26T08:26:18;0.50;;;0.08;;
39750;SDS011;37579;51.074;17.004;2023-02-26T08:28:44;0.50;;;0.10;;
39750;SDS011;37579;51.074;17.004;2023-02-26T08:31:11;0.10;;;0.10;;
39750;SDS011;37579;51.074;17.004;2023-02-26T08:33:38;0.40;;;0.10;;
39750;SDS011;37579;51.074;17.004;2023-02-26T08:36:04;0.30;;;0.20;;
39750;SDS011;37579;51.074;17.004;2023-02-26T08:38:30;0.20;;;0.17;;
39750;SDS011;37579;51.074;17.004;2023-02-26T08:40:56;1.08;;;0.10;;
39750;SDS011;37579;51.074;17.004;2023-02-26T08:43:23;0.43;;;0.10;;
39750;SDS011;37579;51.074;17.004;2023-02-26T08:45:51;1.25;;;0.20;;
39750;SDS011;37579;51.074;17.004;2023-02-26T08:48:18;0.52;;;0.20;;
39750;SDS011;37579;51.074;17.004;2023-02-26T08:50:44;0.32;;;0.10;;
39750;SDS011;37579;51.074;17.004;2023-02-26T08:53:10;0.43;;;0.20;;
39750;SDS011;37579;51.074;17.004;2023-02-26T08:55:36;0.35;;;0.20;;
39750;SDS011;37579;51.074;17.004;2023-02-26T08:58:02;0.57;;;0.20;;
39750;SDS011;37579;51.074;17.004;2023-02-26T09:00:28;0.20;;;0.10;;
39750;SDS011;37579;51.074;17.004;2023-02-26T09:02:54;0.40;;;0.10;;
39750;SDS011;37579;51.074;17.004;2023-02-26T09:05:20;0.93;;;0.28;;
39750;SDS011;37579;51.074;17.004;2023-02-26T09:07:46;0.30;;;0.13;;
39750;SDS011;37579;51.074;17.004;2023-02-26T09:10:12;0.22;;;0.13;;
39750;SDS011;37579;51.074;17.004;2023-02-26T09:12:39;0.38;;;0.10;;
39750;SDS011;37579;51.074;17.004;2023-02-26T09:15:06;0.22;;;0.10;;
39750;SDS011;37579;51.074;17.004;2023-02-26T09:17:34;0.50;;;0.20;;
39750;SDS011;37579;51.074;17.004;2023-02-26T09:20:00;0.73;;;0.15;;
39750;SDS011;37579;51.074;17.004;2023-02-26T09:22:26;0.20;;;0.10;;
39750;SDS011;37579;51.074;17.004;2023-02-26T09:24:52;0.20;;;0.10;;
39750;SDS011;37579;51.074;17.004;2023-02-26T09:27:17;0.35;;;0.10;;
39750;SDS011;37579;51.074;17.004;2023-02-26T09:29:43;0.93;;;0.20;;
39750;SDS011;37579;51.074;17.004;2023-02-26T09:32:09;0.98;;;0.13;;
39750;SDS011;37579;51.074;17.004;2023-02-26T09:34:38;0.30;;;0.20;;
39750;SDS011;37579;51.074;17.004;2023-02-26T09:37:16;0.43;;;0.22;;
39750;SDS011;37579;51.074;17.004;2023-02-26T09:39:43;0.20;;;0.10;;
39750;SDS011;37579;51.074;17.004;2023-02-26T09:42:25;0.20;;;0.10;;
39750;SDS011;37579;51.074;17.004;2023-02-26T09:44:56;0.25;;;0.10;;
39750;SDS011;37579;51.074;17.004;2023-02-26T09:47:35;0.80;;;0.15;;
39750;SDS011;37579;51.074;17.004;2023-02-26T09:53:25;2.25;;;0.20;;
39750;SDS011;37579;51.074;17.004;2023-02-26T09:56:22;0.55;;;0.13;;
39750;SDS011;37579;51.074;17.004;2023-02-26T09:58:50;1.23;;;0.10;;
39750;SDS011;37579;51.074;17.004;2023-02-26T10:12:38;5.25;;;0.28;;
39750;SDS011;37579;51.074;17.004;2023-02-26T10:15:14;3.63;;;0.32;;
39750;SDS011;37579;51.074;17.004;2023-02-26T10:23:37;3.25;;;0.30;;
39750;SDS011;37579;51.074;17.004;2023-02-26T10:31:26;3.35;;;1.20;;
39750;SDS011;37579;51.074;17.004;2023-02-26T10:34:17;4.07;;;1.23;;
39750;SDS011;37579;51.074;17.004;2023-02-26T10:40:27;3.55;;;1.55;;
39750;SDS011;37579;51.074;17.004;2023-02-26T10:50:51;4.97;;;1.30;;
39750;SDS011;37579;51.074;17.004;2023-02-26T10:53:21;2.28;;;0.90;;
39750;SDS011;37579;51.074;17.004;2023-02-26T10:58:24;2.88;;;1.05;;
39750;SDS011;37579;51.074;17.004;2023-02-26T11:00:51;1.98;;;0.90;;
39750;SDS011;37579;51.074;17.004;2023-02-26T11:03:20;4.68;;;1.20;;
39750;SDS011;37579;51.074;17.004;2023-02-26T11:05:52;6.68;;;1.55;;
39750;SDS011;37579;51.074;17.004;2023-02-26T11:08:25;3.00;;;1.23;;
39750;SDS011;37579;51.074;17.004;2023-02-26T11:10:57;9.40;;;3.92;;
39750;SDS011;37579;51.074;17.004;2023-02-26T11:13:28;8.77;;;4.40;;
39750;SDS011;37579;51.074;17.004;2023-02-26T11:15:59;10.85;;;5.25;;
39750;SDS011;37579;51.074;17.004;2023-02-26T11:18:35;10.07;;;4.53;;
39750;SDS011;37579;51.074;17.004;2023-02-26T11:21:44;8.23;;;3.80;;
39750;SDS011;37579;51.074;17.004;2023-02-26T11:24:15;9.38;;;4.00;;
39750;SDS011;37579;51.074;17.004;2023-02-26T11:26:47;7.90;;;3.90;;
39750;SDS011;37579;51.074;17.004;2023-02-26T11:29:15;14.55;;;4.18;;
39750;SDS011;37579;51.074;17.004;2023-02-26T11:31:46;7.00;;;3.67;;
39750;SDS011;37579;51.074;17.004;2023-02-26T11:34:14;6.32;;;2.78;;
39750;SDS011;37579;51.074;17.004;2023-02-26T11:36:41;8.52;;;3.25;;
39750;SDS011;37579;51.074;17.004;2023-02-26T11:39:16;5.97;;;3.42;;
39750;SDS011;37579;51.074;17.004;2023-02-26T11:41:48;4.97;;;2.88;;
39750;SDS011;37579;51.074;17.004;2023-02-26T11:44:19;7.13;;;2.67;;
39750;SDS011;37579;51.074;17.004;2023-02-26T11:46:54;9.70;;;2.60;;
39750;SDS011;37579;51.074;17.004;2023-02-26T11:49:23;5.28;;;2.50;;
39750;SDS011;37579;51.074;17.004;2023-02-26T11:52:05;5.95;;;2.50;;
39750;SDS011;37579;51.074;17.004;2023-02-26T11:54:45;9.52;;;2.95;;
39750;SDS011;37579;51.074;17.004;2023-02-26T11:57:17;4.88;;;2.28;;
39750;SDS011;37579;51.074;17.004;2023-02-26T11:59:49;4.47;;;2.60;;
39750;SDS011;37579;51.074;17.004;2023-02-26T12:02:17;4.82;;;2.15;;
39750;SDS011;37579;51.074;17.004;2023-02-26T12:04:46;5.40;;;2.50;;
39750;SDS011;37579;51.074;17.004;2023-02-26T12:07:17;5.50;;;3.00;;
39750;SDS011;37579;51.074;17.004;2023-02-26T12:09:44;6.18;;;2.60;;
39750;SDS011;37579;51.074;17.004;2023-02-26T12:12:21;6.50;;;2.35;;
39750;SDS011;37579;51.074;17.004;2023-02-26T12:15:04;6.03;;;2.40;;
39750;SDS011;37579;51.074;17.004;2023-02-26T12:20:31;3.95;;;1.73;;
39750;SDS011;37579;51.074;17.004;2023-02-26T12:34:14;3.38;;;1.80;;
39750;SDS011;37579;51.074;17.004;2023-02-26T13:05:04;3.40;;;1.20;;
39750;SDS011;37579;51.074;17.004;2023-02-26T13:21:40;5.15;;;1.42;;
39750;SDS011;37579;51.074;17.004;2023-02-26T13:24:13;4.55;;;1.17;;
39750;SDS011;37579;51.074;17.004;2023-02-26T13:26:46;3.80;;;1.30;;
39750;SDS011;37579;51.074;17.004;2023-02-26T13:31:52;3.20;;;1.50;;
39750;SDS011;37579;51.074;17.004;2023-02-26T13:37:01;2.05;;;1.30;;
39750;SDS011;37579;51.074;17.004;2023-02-26T13:47:51;3.92;;;1.58;;
39750;SDS011;37579;51.074;17.004;2023-02-26T13:50:48;2.83;;;1.10;;
39750;SDS011;37579;51.074;17.004;2023-02-26T13:58:38;5.75;;;1.10;;
39750;SDS011;37579;51.074;17.004;2023-02-26T14:03:51;4.38;;;1.10;;
39750;SDS011;37579;51.074;17.004;2023-02-26T14:09:28;1.38;;;0.95;;
39750;SDS011;37579;51.074;17.004;2023-02-26T14:12:03;3.53;;;1.40;;
39750;SDS011;37579;51.074;17.004;2023-02-26T14:17:46;3.53;;;1.13;;
39750;SDS011;37579;51.074;17.004;2023-02-26T14:20:29;3.92;;;1.02;;
39750;SDS011;37579;51.074;17.004;2023-02-26T14:25:39;2.55;;;1.00;;
39750;SDS011;37579;51.074;17.004;2023-02-26T14:30:52;4.93;;;1.00;;
39750;SDS011;37579;51.074;17.004;2023-02-26T14:33:31;3.33;;;1.25;;
39750;SDS011;37579;51.074;17.004;2023-02-26T14:36:05;4.45;;;1.10;;
39750;SDS011;37579;51.074;17.004;2023-02-26T14:38:40;2.33;;;1.08;;
39750;SDS011;37579;51.074;17.004;2023-02-26T14:43:51;2.05;;;0.90;;
39750;SDS011;37579;51.074;17.004;2023-02-26T14:46:32;2.50;;;1.13;;
39750;SDS011;37579;51.074;17.004;2023-02-26T14:48:59;3.60;;;1.10;;
39750;SDS011;37579;51.074;17.004;2023-02-26T14:57:06;1.67;;;0.70;;
39750;SDS011;37579;51.074;17.004;2023-02-26T15:05:50;1.30;;;0.70;;
39750;SDS011;37579;51.074;17.004;2023-02-26T15:11:14;3.55;;;1.25;;
39750;SDS011;37579;51.074;17.004;2023-02-26T15:25:14;1.60;;;0.73;;
39750;SDS011;37579;51.074;17.004;2023-02-26T15:30:29;1.80;;;0.90;;
39750;SDS011;37579;51.074;17.004;2023-02-26T15:33:02;1.40;;;0.60;;
39750;SDS011;37579;51.074;17.004;2023-02-26T15:37:58;1.98;;;0.80;;
39750;SDS011;37579;51.074;17.004;2023-02-26T15:40:26;1.42;;;0.80;;
39750;SDS011;37579;51.074;17.004;2023-02-26T15:42:56;1.98;;;0.90;;
39750;SDS011;37579;51.074;17.004;2023-02-26T15:45:27;2.28;;;0.60;;
39750;SDS011;37579;51.074;17.004;2023-02-26T15:48:12;1.13;;;0.57;;
39750;SDS011;37579;51.074;17.004;2023-02-26T15:50:42;1.40;;;0.70;;
39750;SDS011;37579;51.074;17.004;2023-02-26T15:53:17;1.48;;;0.77;;
39750;SDS011;37579;51.074;17.004;2023-02-26T15:55:53;1.15;;;0.57;;
39750;SDS011;37579;51.074;17.004;2023-02-26T15:58:27;1.73;;;0.77;;
39750;SDS011;37579;51.074;17.004;2023-02-26T16:01:05;1.30;;;0.50;;
39750;SDS011;37579;51.074;17.004;2023-02-26T16:03:33;4.18;;;2.72;;
39750;SDS011;37579;51.074;17.004;2023-02-26T16:06:00;4.35;;;2.35;;
39750;SDS011;37579;51.074;17.004;2023-02-26T16:08:27;5.03;;;1.83;;
39750;SDS011;37579;51.074;17.004;2023-02-26T16:10:53;3.28;;;1.80;;
39750;SDS011;37579;51.074;17.004;2023-02-26T16:13:27;3.20;;;1.90;;
39750;SDS011;37579;51.074;17.004;2023-02-26T16:16:00;3.08;;;1.52;;
39750;SDS011;37579;51.074;17.004;2023-02-26T16:18:50;4.78;;;1.90;;
39750;SDS011;37579;51.074;17.004;2023-02-26T16:21:22;5.40;;;2.10;;
39750;SDS011;37579;51.074;17.004;2023-02-26T16:23:53;3.15;;;1.75;;
39750;SDS011;37579;51.074;17.004;2023-02-26T16:26:29;6.00;;;1.80;;
39750;SDS011;37579;51.074;17.004;2023-02-26T16:29:06;3.65;;;1.50;;
39750;SDS011;37579;51.074;17.004;2023-02-26T16:31:53;2.67;;;1.50;;
39750;SDS011;37579;51.074;17.004;2023-02-26T16:35:07;1.90;;;1.35;;
39750;SDS011;37579;51.074;17.004;2023-02-26T16:42:39;2.95;;;1.60;;
39750;SDS011;37579;51.074;17.004;2023-02-26T16:48:14;7.28;;;1.60;;
39750;SDS011;37579;51.074;17.004;2023-02-26T16:51:02;3.80;;;1.60;;
39750;SDS011;37579;51.074;17.004;2023-02-26T16:53:36;3.03;;;1.58;;
39750;SDS011;37579;51.074;17.004;2023-02-26T16:56:11;3.50;;;1.27;;
39750;SDS011;37579;51.074;17.004;2023-02-26T16:58:42;4.47;;;1.45;;
39750;SDS011;37579;51.074;17.004;2023-02-26T17:01:14;4.05;;;1.15;;
39750;SDS011;37579;51.074;17.004;2023-02-26T17:03:46;2.55;;;1.45;;
39750;SDS011;37579;51.074;17.004;2023-02-26T17:06:15;3.15;;;1.10;;
39750;SDS011;37579;51.074;17.004;2023-02-26T17:14:14;3.55;;;1.20;;
39750;SDS011;37579;51.074;17.004;2023-02-26T17:16:49;4.32;;;1.00;;
39750;SDS011;37579;51.074;17.004;2023-02-26T17:19:16;3.20;;;1.35;;
39750;SDS011;37579;51.074;17.004;2023-02-26T17:21:51;2.25;;;1.15;;
39750;SDS011;37579;51.074;17.004;2023-02-26T17:24:40;6.25;;;1.27;;
39750;SDS011;37579;51.074;17.004;2023-02-26T17:27:06;2.30;;;1.10;;
39750;SDS011;37579;51.074;17.004;2023-02-26T17:29:38;5.05;;;1.23;;
39750;SDS011;37579;51.074;17.004;2023-02-26T17:32:06;3.75;;;1.25;;
39750;SDS011;37579;51.074;17.004;2023-02-26T17:34:40;4.68;;;1.30;;
39750;SDS011;37579;51.074;17.004;2023-02-26T17:37:09;3.78;;;1.42;;
39750;SDS011;37579;51.074;17.004;2023-02-26T17:39:36;2.95;;;1.23;;
39750;SDS011;37579;51.074;17.004;2023-02-26T17:42:02;2.42;;;1.10;;
39750;SDS011;37579;51.074;17.004;2023-02-26T17:44:33;2.15;;;1.35;;
39750;SDS011;37579;51.074;17.004;2023-02-26T17:46:59;5.25;;;1.10;;
39750;SDS011;37579;51.074;17.004;2023-02-26T17:49:25;3.30;;;0.90;;
39750;SDS011;37579;51.074;17.004;2023-02-26T17:51:51;2.63;;;1.02;;
39750;SDS011;37579;51.074;17.004;2023-02-26T17:54:18;3.53;;;1.05;;
39750;SDS011;37579;51.074;17.004;2023-02-26T17:56:44;2.42;;;1.08;;
39750;SDS011;37579;51.074;17.004;2023-02-26T17:59:10;2.03;;;1.20;;
39750;SDS011;37579;51.074;17.004;2023-02-26T18:01:37;6.28;;;1.40;;
39750;SDS011;37579;51.074;17.004;2023-02-26T18:04:03;3.50;;;1.15;;
39750;SDS011;37579;51.074;17.004;2023-02-26T18:06:31;3.83;;;0.93;;
39750;SDS011;37579;51.074;17.004;2023-02-26T18:08:59;5.03;;;1.50;;
39750;SDS011;37579;51.074;17.004;2023-02-26T18:11:25;3.65;;;1.10;;
39750;SDS011;37579;51.074;17.004;2023-02-26T18:13:51;3.65;;;1.08;;
39750;SDS011;37579;51.074;17.004;2023-02-26T18:16:20;2.15;;;1.00;;
39750;SDS011;37579;51.074;17.004;2023-02-26T18:18:49;3.40;;;1.10;;
39750;SDS011;37579;51.074;17.004;2023-02-26T18:21:15;2.72;;;1.30;;
39750;SDS011;37579;51.074;17.004;2023-02-26T18:23:41;3.47;;;1.30;;
39750;SDS011;37579;51.074;17.004;2023-02-26T18:26:06;3.50;;;1.38;;
39750;SDS011;37579;51.074;17.004;2023-02-26T18:28:34;2.00;;;1.00;;
39750;SDS011;37579;51.074;17.004;2023-02-26T18:31:00;2.97;;;1.23;;
39750;SDS011;37579;51.074;17.004;2023-02-26T18:33:32;4.37;;;1.20;;
39750;SDS011;37579;51.074;17.004;2023-02-26T18:35:58;3.00;;;0.90;;
39750;SDS011;37579;51.074;17.004;2023-02-26T18:38:25;4.63;;;1.10;;
39750;SDS011;37579;51.074;17.004;2023-02-26T18:40:52;3.92;;;1.00;;
39750;SDS011;37579;51.074;17.004;2023-02-26T18:43:18;2.65;;;1.13;;
39750;SDS011;37579;51.074;17.004;2023-02-26T18:45:45;3.83;;;1.05;;
39750;SDS011;37579;51.074;17.004;2023-02-26T18:48:13;2.42;;;1.33;;
39750;SDS011;37579;51.074;17.004;2023-02-26T18:50:41;1.83;;;1.13;;
39750;SDS011;37579;51.074;17.004;2023-02-26T18:53:08;2.42;;;1.08;;
39750;SDS011;37579;51.074;17.004;2023-02-26T18:55:34;2.88;;;1.23;;
39750;SDS011;37579;51.074;17.004;2023-02-26T18:58:00;3.35;;;1.05;;
39750;SDS011;37579;51.074;17.004;2023-02-26T19:00:26;2.40;;;0.82;;
39750;SDS011;37579;51.074;17.004;2023-02-26T19:02:53;1.42;;;0.80;;
39750;SDS011;37579;51.074;17.004;2023-02-26T19:05:19;1.52;;;0.75;;